sensor_id;sensor_type;location;lat;lon;timestamp;pressure;altitude;pressure_sealevel;temperature;humidity
47430;BME280;33181;49.246;7.372;2023-03-04T00:02:02;99532.81;;;1.70;72.86
47430;BME280;33181;49.246;7.372;2023-03-04T00:04:28;99531.19;;;1.68;72.92
47430;BME280;33181;49.246;7.372;2023-03-04T00:06:53;99538.97;;;1.66;72.33
47430;BME280;33181;49.246;7.372;2023-03-04T00:09:19;99530.63;;;1.58;72.16
47430;BME280;33181;49.246;7.372;2023-03-04T00:11:45;99534.19;;;1.54;72.56
47430;BME280;33181;49.246;7.372;2023-03-04T00:14:11;99535.84;;;1.56;72.74
47430;BME280;33181;49.246;7.372;2023-03-04T00:16:37;99537.63;;;1.54;72.79
47430;BME280;33181;49.246;7.372;2023-03-04T00:19:02;99539.56;;;1.48;73.21
47430;BME280;33181;49.246;7.372;2023-03-04T00:21:29;99535.13;;;1.51;73.14
47430;BME280;33181;49.246;7.372;2023-03-04T00:23:55;99538.69;;;1.49;73.31
47430;BME280;33181;49.246;7.372;2023-03-04T00:26:21;99535.25;;;1.48;73.48
47430;BME280;33181;49.246;7.372;2023-03-04T00:28:47;99536.88;;;1.51;73.36
47430;BME280;33181;49.246;7.372;2023-03-04T00:31:13;99536.09;;;1.49;73.19
47430;BME280;33181;49.246;7.372;2023-03-04T00:33:39;99549.13;;;1.46;72.87
47430;BME280;33181;49.246;7.372;2023-03-04T00:36:05;99536.28;;;1.43;72.84
47430;BME280;33181;49.246;7.372;2023-03-04T00:38:31;99532.03;;;1.40;72.67
47430;BME280;33181;49.246;7.372;2023-03-04T00:40:57;99526.03;;;1.39;73.08
47430;BME280;33181;49.246;7.372;2023-03-04T00:43:23;99532.88;;;1.41;72.98
47430;BME280;33181;49.246;7.372;2023-03-04T00:45:49;99538.25;;;1.34;73.17
47430;BME280;33181;49.246;7.372;2023-03-04T00:48:14;99537.25;;;1.38;73.79
47430;BME280;33181;49.246;7.372;2023-03-04T00:50:41;99537.34;;;1.35;73.73
47430;BME280;33181;49.246;7.372;2023-03-04T00:53:09;99529.56;;;1.35;73.21
47430;BME280;33181;49.246;7.372;2023-03-04T00:55:35;99522.59;;;1.39;73.13
47430;BME280;33181;49.246;7.372;2023-03-04T00:58:00;99527.56;;;1.45;73.41
47430;BME280;33181;49.246;7.372;2023-03-04T01:00:26;99538.59;;;1.52;73.19
47430;BME280;33181;49.246;7.372;2023-03-04T01:02:52;99530.09;;;1.47;72.52
47430;BME280;33181;49.246;7.372;2023-03-04T01:05:18;99531.03;;;1.44;72.53
47430;BME280;33181;49.246;7.372;2023-03-04T01:07:43;99536.28;;;1.43;72.48
47430;BME280;33181;49.246;7.372;2023-03-04T01:10:12;99531.22;;;1.38;72.77
47430;BME280;33181;49.246;7.372;2023-03-04T01:12:39;99538.16;;;1.37;73.30
47430;BME280;33181;49.246;7.372;2023-03-04T01:15:10;99526.19;;;1.33;72.80
47430;BME280;33181;49.246;7.372;2023-03-04T01:17:36;99526.22;;;1.32;72.73
47430;BME280;33181;49.246;7.372;2023-03-04T01:20:04;99526.28;;;1.30;72.89
47430;BME280;33181;49.246;7.372;2023-03-04T01:22:30;99528.97;;;1.27;72.77
47430;BME280;33181;49.246;7.372;2023-03-04T01:24:56;99531.59;;;1.26;72.99
47430;BME280;33181;49.246;7.372;2023-03-04T01:27:22;99521.56;;;1.15;72.79
47430;BME280;33181;49.246;7.372;2023-03-04T01:29:47;99516.72;;;1.04;73.21
47430;BME280;33181;49.246;7.372;2023-03-04T01:32:13;99520.28;;;1.00;72.60
47430;BME280;33181;49.246;7.372;2023-03-04T01:34:39;99515.25;;;0.96;72.88
47430;BME280;33181;49.246;7.372;2023-03-04T01:37:05;99509.19;;;0.97;73.27
47430;BME280;33181;49.246;7.372;2023-03-04T01:39:31;99512.84;;;0.89;73.42
47430;BME280;33181;49.246;7.372;2023-03-04T01:41:57;99512.25;;;0.80;74.02
47430;BME280;33181;49.246;7.372;2023-03-04T01:44:23;99503.75;;;0.76;74.34
47430;BME280;33181;49.246;7.372;2023-03-04T01:46:52;99507.19;;;0.77;74.61
47430;BME280;33181;49.246;7.372;2023-03-04T01:49:18;99505.28;;;0.82;74.19
47430;BME280;33181;49.246;7.372;2023-03-04T01:51:56;99497.41;;;0.86;73.88
47430;BME280;33181;49.246;7.372;2023-03-04T01:54:22;99500.81;;;0.88;73.98
47430;BME280;33181;49.246;7.372;2023-03-04T01:56:50;99498.22;;;0.88;73.21
47430;BME280;33181;49.246;7.372;2023-03-04T01:59:20;99501.84;;;0.83;73.43
47430;BME280;33181;49.246;7.372;2023-03-04T02:01:50;99500.25;;;0.77;72.66
47430;BME280;33181;49.246;7.372;2023-03-04T02:04:24;99502.22;;;0.69;73.07
47430;BME280;33181;49.246;7.372;2023-03-04T02:06:51;99494.72;;;0.60;72.91
47430;BME280;33181;49.246;7.372;2023-03-04T02:09:17;99496.59;;;0.55;73.41
47430;BME280;33181;49.246;7.372;2023-03-04T02:11:44;99492.41;;;0.51;73.53
47430;BME280;33181;49.246;7.372;2023-03-04T02:14:12;99489.19;;;0.42;74.00
47430;BME280;33181;49.246;7.372;2023-03-04T02:16:39;99483.19;;;0.40;74.23
47430;BME280;33181;49.246;7.372;2023-03-04T02:19:35;99481.44;;;0.41;74.48
47430;BME280;33181;49.246;7.372;2023-03-04T02:22:05;99482.28;;;0.43;73.84
47430;BME280;33181;49.246;7.372;2023-03-04T02:25:06;99481.28;;;0.47;74.47
47430;BME280;33181;49.246;7.372;2023-03-04T02:27:35;99481.28;;;0.47;74.04
47430;BME280;33181;49.246;7.372;2023-03-04T02:30:01;99480.41;;;0.48;74.32
47430;BME280;33181;49.246;7.372;2023-03-04T02:32:27;99470.91;;;0.49;74.39
47430;BME280;33181;49.246;7.372;2023-03-04T02:34:53;99472.66;;;0.48;74.04
47430;BME280;33181;49.246;7.372;2023-03-04T02:37:19;99473.63;;;0.44;73.81
47430;BME280;33181;49.246;7.372;2023-03-04T02:39:47;99472.78;;;0.43;73.47
47430;BME280;33181;49.246;7.372;2023-03-04T02:42:14;99477.31;;;0.35;73.59
47430;BME280;33181;49.246;7.372;2023-03-04T02:44:43;99475.59;;;0.36;73.81
47430;BME280;33181;49.246;7.372;2023-03-04T02:47:12;99472.25;;;0.31;73.52
47430;BME280;33181;49.246;7.372;2023-03-04T02:49:39;99474.91;;;0.29;74.01
47430;BME280;33181;49.246;7.372;2023-03-04T02:52:13;99473.03;;;0.34;74.13
47430;BME280;33181;49.246;7.372;2023-03-04T02:54:39;99472.44;;;0.25;74.18
47430;BME280;33181;49.246;7.372;2023-03-04T02:57:08;99468.97;;;0.26;73.85
47430;BME280;33181;49.246;7.372;2023-03-04T02:59:36;99465.34;;;0.31;73.76
47430;BME280;33181;49.246;7.372;2023-03-04T03:02:03;99464.50;;;0.32;73.74
47430;BME280;33181;49.246;7.372;2023-03-04T03:04:29;99472.19;;;0.34;73.71
47430;BME280;33181;49.246;7.372;2023-03-04T03:06:55;99476.56;;;0.32;73.08
47430;BME280;33181;49.246;7.372;2023-03-04T03:09:21;99466.25;;;0.30;73.01
47430;BME280;33181;49.246;7.372;2023-03-04T03:11:47;99464.50;;;0.32;72.88
47430;BME280;33181;49.246;7.372;2023-03-04T03:14:13;99473.97;;;0.32;72.75
47430;BME280;33181;49.246;7.372;2023-03-04T03:16:39;99467.94;;;0.31;72.63
47430;BME280;33181;49.246;7.372;2023-03-04T03:19:05;99470.66;;;0.27;72.78
47430;BME280;33181;49.246;7.372;2023-03-04T03:21:31;99468.31;;;0.17;72.56
47430;BME280;33181;49.246;7.372;2023-03-04T03:23:57;99466.97;;;0.03;72.93
47430;BME280;33181;49.246;7.372;2023-03-04T03:26:23;99465.38;;;-0.02;73.01
47430;BME280;33181;49.246;7.372;2023-03-04T03:28:48;99473.19;;;-0.05;73.35
47430;BME280;33181;49.246;7.372;2023-03-04T03:31:14;99464.53;;;-0.02;73.34
47430;BME280;33181;49.246;7.372;2023-03-04T03:33:40;99461.81;;;0.03;73.54
47430;BME280;33181;49.246;7.372;2023-03-04T03:36:07;99461.03;;;0.01;73.72
47430;BME280;33181;49.246;7.372;2023-03-04T03:38:33;99453.59;;;-0.12;73.61
47430;BME280;33181;49.246;7.372;2023-03-04T03:40:59;99455.38;;;-0.14;74.08
47430;BME280;33181;49.246;7.372;2023-03-04T03:43:27;99460.44;;;-0.11;74.60
47430;BME280;33181;49.246;7.372;2023-03-04T03:45:52;99456.94;;;-0.08;74.44
47430;BME280;33181;49.246;7.372;2023-03-04T03:48:18;99455.13;;;-0.05;74.29
47430;BME280;33181;49.246;7.372;2023-03-04T03:50:44;99455.97;;;-0.04;73.65
47430;BME280;33181;49.246;7.372;2023-03-04T03:53:10;99465.47;;;-0.05;73.20
47430;BME280;33181;49.246;7.372;2023-03-04T03:55:36;99470.63;;;-0.05;73.25
47430;BME280;33181;49.246;7.372;2023-03-04T03:58:06;99473.19;;;-0.03;72.97
47430;BME280;33181;49.246;7.372;2023-03-04T04:00:32;99473.50;;;-0.17;72.23
47430;BME280;33181;49.246;7.372;2023-03-04T04:02:59;99465.31;;;-0.33;73.14
47430;BME280;33181;49.246;7.372;2023-03-04T04:05:25;99472.22;;;-0.35;72.98
47430;BME280;33181;49.246;7.372;2023-03-04T04:07:51;99471.38;;;-0.35;73.37
47430;BME280;33181;49.246;7.372;2023-03-04T04:10:17;99470.44;;;-0.31;73.31
47430;BME280;33181;49.246;7.372;2023-03-04T04:12:43;99478.03;;;-0.25;73.31
47430;BME280;33181;49.246;7.372;2023-03-04T04:15:11;99480.56;;;-0.24;73.56
47430;BME280;33181;49.246;7.372;2023-03-04T04:17:37;99480.56;;;-0.24;73.18
47430;BME280;33181;49.246;7.372;2023-03-04T04:20:05;99480.53;;;-0.22;72.81
47430;BME280;33181;49.246;7.372;2023-03-04T04:22:31;99478.00;;;-0.24;72.52
47430;BME280;33181;49.246;7.372;2023-03-04T04:24:57;99479.81;;;-0.27;72.38
47430;BME280;33181;49.246;7.372;2023-03-04T04:27:23;99481.50;;;-0.26;72.57
47430;BME280;33181;49.246;7.372;2023-03-04T04:29:49;99472.88;;;-0.25;72.60
47430;BME280;33181;49.246;7.372;2023-03-04T04:32:14;99472.22;;;-0.33;72.36
47430;BME280;33181;49.246;7.372;2023-03-04T04:34:40;99472.22;;;-0.33;72.55
47430;BME280;33181;49.246;7.372;2023-03-04T04:37:06;99469.63;;;-0.33;72.32
47430;BME280;33181;49.246;7.372;2023-03-04T04:39:32;99473.09;;;-0.34;72.65
47430;BME280;33181;49.246;7.372;2023-03-04T04:41:57;99485.94;;;-0.33;72.45
47430;BME280;33181;49.246;7.372;2023-03-04T04:44:23;99475.63;;;-0.33;72.48
47430;BME280;33181;49.246;7.372;2023-03-04T04:46:49;99480.88;;;-0.36;72.38
47430;BME280;33181;49.246;7.372;2023-03-04T04:49:15;99480.94;;;-0.39;72.15
47430;BME280;33181;49.246;7.372;2023-03-04T04:51:40;99481.00;;;-0.42;72.20
47430;BME280;33181;49.246;7.372;2023-03-04T04:54:12;99476.84;;;-0.48;72.46
47430;BME280;33181;49.246;7.372;2023-03-04T04:56:38;99480.53;;;-0.58;72.32
47430;BME280;33181;49.246;7.372;2023-03-04T04:59:05;99489.22;;;-0.62;72.68
47430;BME280;33181;49.246;7.372;2023-03-04T05:01:33;99480.66;;;-0.64;72.73
47430;BME280;33181;49.246;7.372;2023-03-04T05:03:59;99478.84;;;-0.59;72.88
47430;BME280;33181;49.246;7.372;2023-03-04T05:06:26;99481.44;;;-0.59;72.89
47430;BME280;33181;49.246;7.372;2023-03-04T05:08:54;99485.03;;;-0.66;72.27
47430;BME280;33181;49.246;7.372;2023-03-04T05:11:20;99490.28;;;-0.71;73.06
47430;BME280;33181;49.246;7.372;2023-03-04T05:13:47;99486.03;;;-0.73;73.03
47430;BME280;33181;49.246;7.372;2023-03-04T05:16:14;99485.97;;;-0.70;72.92
47430;BME280;33181;49.246;7.372;2023-03-04T05:18:40;99484.44;;;-0.77;72.50
47430;BME280;33181;49.246;7.372;2023-03-04T05:21:06;99489.63;;;-0.79;72.67
47430;BME280;33181;49.246;7.372;2023-03-04T05:23:39;99487.97;;;-0.81;72.72
47430;BME280;33181;49.246;7.372;2023-03-04T05:26:08;99492.16;;;-0.77;73.07
47430;BME280;33181;49.246;7.372;2023-03-04T05:28:34;99486.97;;;-0.76;73.01
47430;BME280;33181;49.246;7.372;2023-03-04T05:31:01;99494.06;;;-0.85;72.39
47430;BME280;33181;49.246;7.372;2023-03-04T05:33:27;99495.78;;;-0.84;72.98
47430;BME280;33181;49.246;7.372;2023-03-04T05:35:52;99493.13;;;-0.81;72.87
47430;BME280;33181;49.246;7.372;2023-03-04T05:38:20;99491.38;;;-0.81;73.07
47430;BME280;33181;49.246;7.372;2023-03-04T05:40:47;99494.78;;;-0.79;72.60
47430;BME280;33181;49.246;7.372;2023-03-04T05:43:14;99488.75;;;-0.78;72.36
47430;BME280;33181;49.246;7.372;2023-03-04T05:45:41;99493.06;;;-0.80;72.30
47430;BME280;33181;49.246;7.372;2023-03-04T05:48:07;99496.81;;;-0.93;72.00
47430;BME280;33181;49.246;7.372;2023-03-04T05:50:34;99501.25;;;-1.00;72.52
47430;BME280;33181;49.246;7.372;2023-03-04T05:53:00;99496.88;;;-0.96;73.08
47430;BME280;33181;49.246;7.372;2023-03-04T05:55:26;99493.38;;;-0.94;72.76
47430;BME280;33181;49.246;7.372;2023-03-04T05:57:53;99496.88;;;-0.95;72.85
47430;BME280;33181;49.246;7.372;2023-03-04T06:00:19;99496.03;;;-0.97;72.60
47430;BME280;33181;49.246;7.372;2023-03-04T06:02:45;99492.63;;;-0.99;71.96
47430;BME280;33181;49.246;7.372;2023-03-04T06:05:14;99502.03;;;-0.96;72.24
47430;BME280;33181;49.246;7.372;2023-03-04T06:07:41;99509.75;;;-0.95;72.42
47430;BME280;33181;49.246;7.372;2023-03-04T06:10:14;99509.00;;;-1.00;71.88
47430;BME280;33181;49.246;7.372;2023-03-04T06:12:40;99511.59;;;-1.01;72.07
47430;BME280;33181;49.246;7.372;2023-03-04T06:15:07;99504.75;;;-1.02;71.66
47430;BME280;33181;49.246;7.372;2023-03-04T06:17:39;99509.19;;;-1.10;72.23
47430;BME280;33181;49.246;7.372;2023-03-04T06:20:05;99510.06;;;-1.10;71.94
47430;BME280;33181;49.246;7.372;2023-03-04T06:22:32;99513.44;;;-1.08;72.35
47430;BME280;33181;49.246;7.372;2023-03-04T06:24:59;99509.91;;;-1.02;72.56
47430;BME280;33181;49.246;7.372;2023-03-04T06:27:25;99515.75;;;-0.94;72.39
47430;BME280;33181;49.246;7.372;2023-03-04T06:29:51;99519.03;;;-0.87;72.31
47430;BME280;33181;49.246;7.372;2023-03-04T06:32:16;99516.34;;;-0.81;72.00
47430;BME280;33181;49.246;7.372;2023-03-04T06:34:44;99522.22;;;-0.76;72.33
47430;BME280;33181;49.246;7.372;2023-03-04T06:37:10;99520.41;;;-0.73;72.10
47430;BME280;33181;49.246;7.372;2023-03-04T06:39:36;99519.44;;;-0.67;72.08
47430;BME280;33181;49.246;7.372;2023-03-04T06:42:02;99527.94;;;-0.62;71.82
47430;BME280;33181;49.246;7.372;2023-03-04T06:44:28;99530.41;;;-0.57;72.04
47430;BME280;33181;49.246;7.372;2023-03-04T06:46:55;99523.59;;;-0.60;71.81
47430;BME280;33181;49.246;7.372;2023-03-04T06:49:21;99536.59;;;-0.64;71.99
47430;BME280;33181;49.246;7.372;2023-03-04T06:51:47;99541.84;;;-0.69;72.13
47430;BME280;33181;49.246;7.372;2023-03-04T06:54:13;99545.16;;;-0.62;72.02
47430;BME280;33181;49.246;7.372;2023-03-04T06:56:38;99545.72;;;-0.50;71.82
47430;BME280;33181;49.246;7.372;2023-03-04T06:59:04;99544.19;;;-0.21;72.11
47430;BME280;33181;49.246;7.372;2023-03-04T07:01:30;99547.03;;;0.04;71.91
47430;BME280;33181;49.246;7.372;2023-03-04T07:03:56;99544.81;;;0.23;71.58
47430;BME280;33181;49.246;7.372;2023-03-04T07:06:26;99548.44;;;0.49;71.40
47430;BME280;33181;49.246;7.372;2023-03-04T07:08:52;99553.91;;;0.69;70.52
47430;BME280;33181;49.246;7.372;2023-03-04T07:11:19;99551.66;;;0.88;69.91
47430;BME280;33181;49.246;7.372;2023-03-04T07:13:47;99553.63;;;1.11;68.38
47430;BME280;33181;49.246;7.372;2023-03-04T07:16:16;99557.19;;;1.35;68.43
47430;BME280;33181;49.246;7.372;2023-03-04T07:18:43;99566.72;;;1.62;67.45
47430;BME280;33181;49.246;7.372;2023-03-04T07:21:10;99565.94;;;1.87;66.48
47430;BME280;33181;49.246;7.372;2023-03-04T07:23:37;99569.09;;;1.97;65.03
47430;BME280;33181;49.246;7.372;2023-03-04T07:26:04;99568.91;;;2.03;65.30
47430;BME280;33181;49.246;7.372;2023-03-04T07:28:30;99575.63;;;2.08;65.42
47430;BME280;33181;49.246;7.372;2023-03-04T07:30:56;99574.91;;;2.03;64.97
47430;BME280;33181;49.246;7.372;2023-03-04T07:33:21;99585.44;;;1.99;64.75
47430;BME280;33181;49.246;7.372;2023-03-04T07:35:47;99581.63;;;1.82;64.67
47430;BME280;33181;49.246;7.372;2023-03-04T07:38:13;99586.69;;;1.59;65.15
47430;BME280;33181;49.246;7.372;2023-03-04T07:40:39;99588.22;;;1.36;65.66
47430;BME280;33181;49.246;7.372;2023-03-04T07:43:05;99587.94;;;1.16;66.83
47430;BME280;33181;49.246;7.372;2023-03-04T07:45:30;99585.50;;;1.11;67.24
47430;BME280;33181;49.246;7.372;2023-03-04T07:47:59;99585.50;;;1.11;67.54
47430;BME280;33181;49.246;7.372;2023-03-04T07:50:25;99586.94;;;1.22;68.25
47430;BME280;33181;49.246;7.372;2023-03-04T07:52:51;99582.22;;;1.36;67.70
47430;BME280;33181;49.246;7.372;2023-03-04T07:55:17;99593.91;;;1.48;67.05
47430;BME280;33181;49.246;7.372;2023-03-04T07:57:46;99592.03;;;1.53;67.18
47430;BME280;33181;49.246;7.372;2023-03-04T08:00:14;99591.28;;;1.49;67.39
47430;BME280;33181;49.246;7.372;2023-03-04T08:02:41;99593.69;;;1.55;67.43
47430;BME280;33181;49.246;7.372;2023-03-04T08:05:07;99601.38;;;1.58;67.22
47430;BME280;33181;49.246;7.372;2023-03-04T08:07:33;99597.50;;;1.72;67.25
47430;BME280;33181;49.246;7.372;2023-03-04T08:09:59;99591.09;;;1.83;67.41
47430;BME280;33181;49.246;7.372;2023-03-04T08:12:26;99589.09;;;1.92;67.56
47430;BME280;33181;49.246;7.372;2023-03-04T08:14:52;99590.44;;;2.05;66.91
47430;BME280;33181;49.246;7.372;2023-03-04T08:17:18;99592.06;;;2.07;67.28
47430;BME280;33181;49.246;7.372;2023-03-04T08:19:44;99591.50;;;1.98;67.40
47430;BME280;33181;49.246;7.372;2023-03-04T08:22:10;99589.91;;;1.94;67.92
47430;BME280;33181;49.246;7.372;2023-03-04T08:24:36;99588.06;;;1.97;67.99
47430;BME280;33181;49.246;7.372;2023-03-04T08:27:02;99587.56;;;2.13;68.26
47430;BME280;33181;49.246;7.372;2023-03-04T08:29:28;99590.53;;;2.27;67.83
47430;BME280;33181;49.246;7.372;2023-03-04T08:31:54;99585.31;;;2.28;67.64
47430;BME280;33181;49.246;7.372;2023-03-04T08:34:23;99588.25;;;2.44;67.48
47430;BME280;33181;49.246;7.372;2023-03-04T08:36:50;99588.38;;;2.66;67.79
47430;BME280;33181;49.246;7.372;2023-03-04T08:39:17;99590.53;;;2.78;67.62
47430;BME280;33181;49.246;7.372;2023-03-04T08:41:44;99589.38;;;2.87;67.20
47430;BME280;33181;49.246;7.372;2023-03-04T08:44:10;99590.03;;;2.92;66.00
47430;BME280;33181;49.246;7.372;2023-03-04T08:46:39;99585.13;;;2.85;67.36
47430;BME280;33181;49.246;7.372;2023-03-04T08:49:05;99581.81;;;2.81;67.54
47430;BME280;33181;49.246;7.372;2023-03-04T08:51:32;99582.66;;;2.57;68.71
47430;BME280;33181;49.246;7.372;2023-03-04T08:54:01;99580.38;;;2.72;69.27
47430;BME280;33181;49.246;7.372;2023-03-04T08:56:27;99577.66;;;2.75;69.37
47430;BME280;33181;49.246;7.372;2023-03-04T08:58:53;99577.16;;;2.89;69.60
47430;BME280;33181;49.246;7.372;2023-03-04T09:01:19;99577.34;;;3.08;68.93
47430;BME280;33181;49.246;7.372;2023-03-04T09:03:45;99578.00;;;3.37;68.81
47430;BME280;33181;49.246;7.372;2023-03-04T09:06:14;99581.31;;;3.64;68.10
47430;BME280;33181;49.246;7.372;2023-03-04T09:08:41;99577.63;;;3.91;67.83
47430;BME280;33181;49.246;7.372;2023-03-04T09:11:07;99579.28;;;4.14;66.74
47430;BME280;33181;49.246;7.372;2023-03-04T09:13:33;99574.09;;;4.35;66.64
47430;BME280;33181;49.246;7.372;2023-03-04T09:16:00;99578.59;;;4.52;66.45
47430;BME280;33181;49.246;7.372;2023-03-04T09:18:27;99570.66;;;4.75;65.61
47430;BME280;33181;49.246;7.372;2023-03-04T09:20:53;99570.19;;;4.86;64.83
47430;BME280;33181;49.246;7.372;2023-03-04T09:23:20;99566.78;;;5.04;64.11
47430;BME280;33181;49.246;7.372;2023-03-04T09:25:46;99566.28;;;5.34;64.63
47430;BME280;33181;49.246;7.372;2023-03-04T09:28:15;99575.63;;;5.57;64.02
47430;BME280;33181;49.246;7.372;2023-03-04T09:30:41;99575.09;;;5.50;62.88
47430;BME280;33181;49.246;7.372;2023-03-04T09:33:08;99568.75;;;5.18;63.79
47430;BME280;33181;49.246;7.372;2023-03-04T09:35:34;99578.91;;;5.43;63.28
47430;BME280;33181;49.246;7.372;2023-03-04T09:38:00;99577.91;;;5.46;63.04
47430;BME280;33181;49.246;7.372;2023-03-04T09:40:45;99569.06;;;5.67;63.12
47430;BME280;33181;49.246;7.372;2023-03-04T09:43:21;99568.97;;;5.88;61.85
47430;BME280;33181;49.246;7.372;2023-03-04T09:45:54;99575.50;;;5.41;62.64
47430;BME280;33181;49.246;7.372;2023-03-04T09:48:24;99578.34;;;5.55;62.76
47430;BME280;33181;49.246;7.372;2023-03-04T09:51:05;99578.47;;;5.89;62.37
47430;BME280;33181;49.246;7.372;2023-03-04T09:54:09;99580.75;;;5.96;61.61
47430;BME280;33181;49.246;7.372;2023-03-04T09:56:40;99581.75;;;6.11;62.24
47430;BME280;33181;49.246;7.372;2023-03-04T09:59:24;99574.19;;;6.07;61.74
47430;BME280;33181;49.246;7.372;2023-03-04T10:01:55;99583.38;;;5.96;61.93
47430;BME280;33181;49.246;7.372;2023-03-04T10:07:34;99580.16;;;5.16;64.03
47430;BME280;33181;49.246;7.372;2023-03-04T10:10:24;99585.31;;;4.97;65.17
47430;BME280;33181;49.246;7.372;2023-03-04T10:12:53;99585.50;;;5.13;64.91
47430;BME280;33181;49.246;7.372;2023-03-04T10:15:40;99579.66;;;5.26;64.34
47430;BME280;33181;49.246;7.372;2023-03-04T10:18:36;99578.19;;;5.02;63.73
47430;BME280;33181;49.246;7.372;2023-03-04T10:21:57;99579.84;;;5.03;63.73
47430;BME280;33181;49.246;7.372;2023-03-04T10:24:12;99575.66;;;4.80;64.48
47430;BME280;33181;49.246;7.372;2023-03-04T10:26:42;99576.69;;;4.76;65.18
47430;BME280;33181;49.246;7.372;2023-03-04T10:29:19;99582.63;;;4.59;65.17
47430;BME280;33181;49.246;7.372;2023-03-04T10:31:46;99575.28;;;4.69;65.31
47430;BME280;33181;49.246;7.372;2023-03-04T10:34:14;99584.56;;;4.33;64.69
47430;BME280;33181;49.246;7.372;2023-03-04T10:39:29;99584.00;;;4.27;66.08
47430;BME280;33181;49.246;7.372;2023-03-04T10:44:59;99581.09;;;4.55;65.21
47430;BME280;33181;49.246;7.372;2023-03-04T10:47:28;99577.78;;;4.51;65.26
47430;BME280;33181;49.246;7.372;2023-03-04T10:50:00;99570.69;;;4.55;64.75
47430;BME280;33181;49.246;7.372;2023-03-04T10:52:37;99568.91;;;4.55;64.93
47430;BME280;33181;49.246;7.372;2023-03-04T10:55:42;99568.44;;;4.66;64.98
47430;BME280;33181;49.246;7.372;2023-03-04T10:58:14;99571.53;;;4.55;64.31
47430;BME280;33181;49.246;7.372;2023-03-04T11:00:43;99563.84;;;4.52;64.85
47430;BME280;33181;49.246;7.372;2023-03-04T11:05:53;99558.38;;;4.38;65.83
47430;BME280;33181;49.246;7.372;2023-03-04T11:08:28;99557.31;;;4.22;66.19
47430;BME280;33181;49.246;7.372;2023-03-04T11:10:54;99567.94;;;4.17;66.28
47430;BME280;33181;49.246;7.372;2023-03-04T11:13:23;99559.63;;;4.29;66.90
47430;BME280;33181;49.246;7.372;2023-03-04T11:16:02;99567.28;;;4.32;66.14
47430;BME280;33181;49.246;7.372;2023-03-04T11:18:42;99564.81;;;4.50;66.18
47430;BME280;33181;49.246;7.372;2023-03-04T11:21:16;99554.59;;;4.65;65.72
47430;BME280;33181;49.246;7.372;2023-03-04T11:26:39;99549.66;;;4.59;65.59
47430;BME280;33181;49.246;7.372;2023-03-04T11:32:27;99544.88;;;4.69;65.00
47430;BME280;33181;49.246;7.372;2023-03-04T11:43:33;99533.97;;;5.00;63.56
47430;BME280;33181;49.246;7.372;2023-03-04T11:52:13;99524.47;;;4.99;63.69
47430;BME280;33181;49.246;7.372;2023-03-04T12:01:07;99515.41;;;5.27;63.72
47430;BME280;33181;49.246;7.372;2023-03-04T12:04:21;99510.75;;;5.33;63.16
47430;BME280;33181;49.246;7.372;2023-03-04T12:07:40;99503.34;;;5.43;62.84
47430;BME280;33181;49.246;7.372;2023-03-04T12:10:22;99501.19;;;5.51;62.72
47430;BME280;33181;49.246;7.372;2023-03-04T12:13:33;99498.03;;;5.45;62.42
47430;BME280;33181;49.246;7.372;2023-03-04T12:28:38;99491.19;;;5.25;62.93
47430;BME280;33181;49.246;7.372;2023-03-04T12:31:42;99483.50;;;5.41;62.36
47430;BME280;33181;49.246;7.372;2023-03-04T12:34:42;99487.59;;;5.64;62.23
47430;BME280;33181;49.246;7.372;2023-03-04T12:49:14;99467.91;;;5.75;61.30
47430;BME280;33181;49.246;7.372;2023-03-04T12:54:55;99461.72;;;6.13;60.26
47430;BME280;33181;49.246;7.372;2023-03-04T12:57:26;99458.28;;;6.12;60.44
47430;BME280;33181;49.246;7.372;2023-03-04T13:09:11;99457.38;;;5.96;60.39
47430;BME280;33181;49.246;7.372;2023-03-04T13:14:30;99451.28;;;5.95;59.92
47430;BME280;33181;49.246;7.372;2023-03-04T13:17:05;99441.88;;;5.93;59.54
47430;BME280;33181;49.246;7.372;2023-03-04T13:19:47;99433.81;;;5.97;60.05
47430;BME280;33181;49.246;7.372;2023-03-04T13:22:41;99433.88;;;6.13;59.75
47430;BME280;33181;49.246;7.372;2023-03-04T13:25:34;99431.88;;;6.01;59.62
47430;BME280;33181;49.246;7.372;2023-03-04T13:43:58;99418.72;;;6.37;59.46
47430;BME280;33181;49.246;7.372;2023-03-04T13:56:33;99423.28;;;5.81;59.68
47430;BME280;33181;49.246;7.372;2023-03-04T14:04:21;99419.63;;;5.68;60.79
47430;BME280;33181;49.246;7.372;2023-03-04T14:06:50;99420.84;;;5.78;60.82
47430;BME280;33181;49.246;7.372;2023-03-04T14:09:26;99419.59;;;5.86;60.58
47430;BME280;33181;49.246;7.372;2023-03-04T14:11:57;99421.31;;;5.87;60.63
47430;BME280;33181;49.246;7.372;2023-03-04T14:14:29;99419.00;;;5.80;60.65
47430;BME280;33181;49.246;7.372;2023-03-04T14:17:02;99421.97;;;5.73;60.59
47430;BME280;33181;49.246;7.372;2023-03-04T14:19:38;99416.16;;;5.85;60.59
47430;BME280;33181;49.246;7.372;2023-03-04T14:22:27;99418.75;;;5.85;60.64
47430;BME280;33181;49.246;7.372;2023-03-04T14:25:28;99411.56;;;6.08;60.26
47430;BME280;33181;49.246;7.372;2023-03-04T14:30:36;99403.00;;;6.06;60.13
47430;BME280;33181;49.246;7.372;2023-03-04T14:33:07;99404.97;;;6.00;60.35
47430;BME280;33181;49.246;7.372;2023-03-04T14:35:35;99395.69;;;5.95;60.54
47430;BME280;33181;49.246;7.372;2023-03-04T14:38:05;99400.06;;;5.94;60.34
47430;BME280;33181;49.246;7.372;2023-03-04T14:40:43;99395.78;;;5.93;60.92
47430;BME280;33181;49.246;7.372;2023-03-04T14:43:22;99391.94;;;6.00;60.72
47430;BME280;33181;49.246;7.372;2023-03-04T14:45:52;99383.34;;;5.98;60.97
47430;BME280;33181;49.246;7.372;2023-03-04T14:48:28;99383.97;;;6.03;60.18
47430;BME280;33181;49.246;7.372;2023-03-04T14:50:57;99379.91;;;5.98;60.65
47430;BME280;33181;49.246;7.372;2023-03-04T14:53:32;99389.16;;;5.86;61.07
47430;BME280;33181;49.246;7.372;2023-03-04T14:55:58;99383.19;;;5.84;60.49
47430;BME280;33181;49.246;7.372;2023-03-04T14:58:28;99382.34;;;5.84;60.97
47430;BME280;33181;49.246;7.372;2023-03-04T15:01:06;99380.06;;;5.77;61.54
47430;BME280;33181;49.246;7.372;2023-03-04T15:03:32;99381.56;;;5.81;61.51
47430;BME280;33181;49.246;7.372;2023-03-04T15:06:17;99376.72;;;5.91;61.30
47430;BME280;33181;49.246;7.372;2023-03-04T15:08:45;99383.28;;;6.00;60.88
47430;BME280;33181;49.246;7.372;2023-03-04T15:11:24;99376.13;;;5.86;60.52
47430;BME280;33181;49.246;7.372;2023-03-04T15:13:54;99376.91;;;5.71;60.73